CMB827 Details

Departure: Wake Island Airfield (PWAK)
Arrival: Daniel K Inouye International Airport (PHNL) at N/A
Route: AWK 2000N/17000E 2100N/18000E 2100N/17000W KATHS
Notes: USTRANSCOM CONTRACT FLIGHT


Current Weather Information
PWAK 250958Z AUTO 06011KT 9999 SCT020 SCT028 29/25 A2994 RMK AO2 SLP145 T02910249 $
PHNL 251053Z 08009KT 10SM CLR 28/21 A3000 RMK AO2 SLP157 T02780206